createdAt,value
2023-04-29T00:00:44.846Z,100722.41
2023-04-29T00:03:11.616Z,100722.97
2023-04-29T00:05:38.466Z,100720.91
2023-04-29T00:08:05.822Z,100723.56
2023-04-29T00:10:33.073Z,100729.44
2023-04-29T00:13:00.001Z,100724.13
2023-04-29T00:15:26.722Z,100717.22
2023-04-29T00:17:53.764Z,100727.94
2023-04-29T00:20:20.415Z,100736.50
2023-04-29T00:22:47.231Z,100728.53
2023-04-29T00:25:13.745Z,100733.03
2023-04-29T00:27:40.905Z,100734.66
2023-04-29T00:30:08.665Z,100736.25
2023-04-29T00:32:35.325Z,100737.66
2023-04-29T00:35:02.385Z,100736.63
2023-04-29T00:37:29.048Z,100736.63
2023-04-29T00:39:55.558Z,100732.91
2023-04-29T00:42:22.552Z,100737.78
2023-04-29T00:44:49.163Z,100734.09
2023-04-29T00:47:15.684Z,100731.44
2023-04-29T00:49:42.276Z,100729.38
2023-04-29T00:52:11.557Z,100733.06
2023-04-29T00:54:39.167Z,100734.69
2023-04-29T00:57:06.448Z,100735.28
2023-04-29T00:59:34.576Z,100737.13
2023-04-29T01:02:04.947Z,100746.72
2023-04-29T01:04:31.763Z,100733.22
2023-04-29T01:07:14.364Z,100734.28
2023-04-29T01:10:09.879Z,100735.06
2023-04-29T01:12:36.729Z,100735.88
2023-04-29T01:15:17.389Z,100739.13
2023-04-29T01:18:00.924Z,100730.34
2023-04-29T01:20:28.037Z,100735.63
2023-04-29T01:22:54.760Z,100734.38
2023-04-29T01:25:21.379Z,100739.94
2023-04-29T01:28:16.224Z,100748.66
2023-04-29T01:31:25.490Z,100747.88
2023-04-29T01:34:14.488Z,100748.66
2023-04-29T01:37:35.145Z,100752.13
2023-04-29T01:40:16.228Z,100754.78
2023-04-29T01:43:12.741Z,100755.56
2023-04-29T01:45:42.191Z,100752.94
2023-04-29T01:48:09.787Z,100747.88
2023-04-29T01:50:36.413Z,100746.81
2023-04-29T01:53:02.961Z,100747.63
2023-04-29T01:55:29.569Z,100747.63
2023-04-29T01:57:56.148Z,100747.38
2023-04-29T02:00:22.924Z,100751.88
2023-04-29T02:02:49.525Z,100751.09
2023-04-29T02:05:16.250Z,100749.25
2023-04-29T02:07:44.554Z,100752.69
2023-04-29T02:10:12.028Z,100758.81
2023-04-29T02:12:38.844Z,100753.53
2023-04-29T02:15:05.856Z,100758.81
2023-04-29T02:17:34.543Z,100758.00
2023-04-29T02:20:01.233Z,100751.88
2023-04-29T02:22:27.690Z,100762.47
2023-04-29T02:24:54.451Z,100750.88
2023-04-29T02:27:21.195Z,100758.81
2023-04-29T02:29:47.705Z,100754.53
2023-04-29T02:32:16.083Z,100753.72
2023-04-29T02:34:42.716Z,100762.47
2023-04-29T02:37:09.338Z,100755.34
2023-04-29T02:39:35.917Z,100752.47
2023-04-29T02:42:03.050Z,100758.81
2023-04-29T02:44:30.826Z,100749.84
2023-04-29T02:46:58.148Z,100750.28
2023-04-29T02:49:25.904Z,100750.28
2023-04-29T02:51:52.451Z,100751.09
2023-04-29T02:54:19.763Z,100757.44
2023-04-29T02:56:46.433Z,100755.00
2023-04-29T02:59:12.926Z,100749.91
2023-04-29T03:01:39.978Z,100759.28
2023-04-29T03:04:06.886Z,100768.25
2023-04-29T03:06:33.532Z,100770.66
2023-04-29T03:09:00.142Z,100759.47
2023-04-29T03:11:26.686Z,100757.06
2023-04-29T03:13:54.094Z,100768.25
2023-04-29T03:16:21.502Z,100771.13
2023-04-29T03:18:48.585Z,100768.03
2023-04-29T03:21:15.216Z,100763.97
2023-04-29T03:23:42.300Z,100761.13
2023-04-29T03:26:09.172Z,100771.13
2023-04-29T03:28:35.769Z,100763.75
2023-04-29T03:31:03.054Z,100765.00
2023-04-29T03:33:29.646Z,100768.25
2023-04-29T03:35:56.167Z,100760.31
2023-04-29T03:38:22.810Z,100768.25
2023-04-29T03:40:49.509Z,100763.75
2023-04-29T03:43:16.105Z,100765.59
2023-04-29T03:45:42.641Z,100769.28
2023-04-29T03:48:09.606Z,100767.22
2023-04-29T03:50:37.019Z,100769.06
2023-04-29T03:53:03.621Z,100762.97
2023-04-29T03:55:30.232Z,100762.72
2023-04-29T03:57:56.734Z,100764.31
2023-04-29T04:00:24.071Z,100775.97
2023-04-29T04:02:50.742Z,100762.72
2023-04-29T04:05:19.957Z,100774.13
2023-04-29T04:07:46.882Z,100766.41
2023-04-29T04:10:13.462Z,100765.38
2023-04-29T04:12:40.876Z,100779.41
2023-04-29T04:15:15.558Z,100784.97
2023-04-29T04:17:42.066Z,100779.66
2023-04-29T04:20:09.437Z,100783.09
2023-04-29T04:22:36.227Z,100785.16
2023-04-29T04:25:02.821Z,100781.72
2023-04-29T04:27:30.017Z,100779.28
2023-04-29T04:29:56.595Z,100787.66
2023-04-29T04:32:23.732Z,100783.84
2023-04-29T04:34:50.766Z,100786.38
2023-04-29T04:37:17.687Z,100786.56
2023-04-29T04:39:44.299Z,100795.31
2023-04-29T04:42:11.110Z,100794.03
2023-04-29T04:44:38.231Z,100787.56
2023-04-29T04:47:06.309Z,100805.06
2023-04-29T04:49:32.879Z,100800.44
2023-04-29T04:51:59.454Z,100804.31
2023-04-29T04:54:26.315Z,100809.41
2023-04-29T04:56:52.808Z,100808.00
2023-04-29T04:59:19.337Z,100816.88
2023-04-29T05:01:45.865Z,100819.13
2023-04-29T05:04:12.529Z,100824.63
2023-04-29T05:06:39.241Z,100811.19
2023-04-29T05:09:06.426Z,100818.16
2023-04-29T05:11:33.015Z,100817.47
2023-04-29T05:14:00.049Z,100815.03
2023-04-29T05:16:26.559Z,100825.84
2023-04-29T05:18:53.066Z,100833.41
2023-04-29T05:21:19.570Z,100823.47
2023-04-29T05:23:46.093Z,100839.78
2023-04-29T05:26:12.724Z,100845.88
2023-04-29T05:28:39.368Z,100845.75
2023-04-29T05:31:06.349Z,100848.16
2023-04-29T05:33:33.037Z,100846.56
2023-04-29T05:35:59.571Z,100844.13
2023-04-29T05:38:29.052Z,100845.53
2023-04-29T05:40:56.434Z,100851.19
2023-04-29T05:43:22.955Z,100847.97
2023-04-29T05:45:49.741Z,100860.91
2023-04-29T05:48:16.674Z,100855.16
2023-04-29T05:50:43.408Z,100852.69
2023-04-29T05:53:10.004Z,100852.00
2023-04-29T05:55:36.489Z,100844.63
2023-04-29T05:58:03.255Z,100855.16
2023-04-29T06:00:29.811Z,100860.03
2023-04-29T06:02:59.074Z,100864.03
2023-04-29T06:05:27.039Z,100859.34
2023-04-29T06:07:54.104Z,100851.53
2023-04-29T06:10:20.756Z,100855.16
2023-04-29T06:12:51.556Z,100856.09
2023-04-29T06:15:18.104Z,100859.72
2023-04-29T06:17:45.097Z,100855.59
2023-04-29T06:20:12.217Z,100861.81
2023-04-29T06:22:38.711Z,100860.38
2023-04-29T06:25:05.564Z,100860.50
2023-04-29T06:27:32.320Z,100869.41
2023-04-29T06:29:58.996Z,100865.03
2023-04-29T06:32:25.515Z,100872.09
2023-04-29T06:34:52.135Z,100868.78
2023-04-29T06:37:18.675Z,100879.28
2023-04-29T06:39:45.255Z,100871.47
2023-04-29T06:42:12.036Z,100875.28
2023-04-29T06:44:39.124Z,100877.63
2023-04-29T06:47:05.728Z,100876.38
2023-04-29T06:49:32.361Z,100879.13
2023-04-29T06:51:59.612Z,100886.41
2023-04-29T06:54:27.691Z,100882.25
2023-04-29T06:56:54.565Z,100890.69
2023-04-29T06:59:21.053Z,100897.97
2023-04-29T07:01:49.606Z,100892.56
2023-04-29T07:04:16.477Z,100896.72
2023-04-29T07:06:46.823Z,100888.69
2023-04-29T07:09:14.500Z,100903.22
2023-04-29T07:11:41.540Z,100896.75
2023-04-29T07:14:08.772Z,100894.81
2023-04-29T07:16:35.572Z,100893.66
2023-04-29T07:19:02.252Z,100895.16
2023-04-29T07:21:28.872Z,100901.97
2023-04-29T07:23:55.727Z,100899.78
2023-04-29T07:26:22.328Z,100900.44
2023-04-29T07:28:49.952Z,100907.50
2023-04-29T07:31:16.812Z,100906.34
2023-04-29T07:33:45.368Z,100901.72
2023-04-29T07:36:12.065Z,100913.84
2023-04-29T07:38:38.588Z,100912.06
2023-04-29T07:41:05.291Z,100913.56
2023-04-29T07:43:31.983Z,100918.50
2023-04-29T07:45:58.579Z,100910.63
2023-04-29T07:48:25.237Z,100907.59
2023-04-29T07:50:51.819Z,100909.31
2023-04-29T07:53:18.535Z,100920.38
2023-04-29T07:55:45.112Z,100914.13
2023-04-29T07:58:11.679Z,100916.63
2023-04-29T08:00:38.825Z,100918.94
2023-04-29T08:03:05.552Z,100912.63
2023-04-29T08:05:32.366Z,100908.53
2023-04-29T08:07:59.090Z,100916.13
2023-04-29T08:10:26.193Z,100916.78
2023-04-29T08:12:52.687Z,100919.06
2023-04-29T08:15:20.325Z,100923.78
2023-04-29T08:17:47.210Z,100921.50
2023-04-29T08:20:13.845Z,100919.50
2023-04-29T08:22:40.665Z,100919.09
2023-04-29T08:25:07.782Z,100909.63
2023-04-29T08:27:34.410Z,100916.16
2023-04-29T08:30:00.968Z,100918.44
2023-04-29T08:32:27.516Z,100912.69
2023-04-29T08:34:54.431Z,100913.06
2023-04-29T08:37:21.168Z,100920.63
2023-04-29T08:39:48.067Z,100923.69
2023-04-29T08:42:14.773Z,100933.66
2023-04-29T08:44:42.105Z,100929.75
2023-04-29T08:47:09.210Z,100929.94
2023-04-29T08:49:38.151Z,100928.44
2023-04-29T08:52:04.986Z,100924.03
2023-04-29T08:54:32.898Z,100932.16
2023-04-29T08:57:00.494Z,100933.06
2023-04-29T08:59:28.348Z,100936.16
2023-04-29T09:01:56.348Z,100928.00
2023-04-29T09:05:03.901Z,100916.91
2023-04-29T09:07:31.915Z,100933.56
2023-04-29T09:09:59.662Z,100933.41
2023-04-29T09:12:26.286Z,100944.75
2023-04-29T09:14:53.040Z,100936.03
2023-04-29T09:17:20.469Z,100944.38
2023-04-29T09:19:47.034Z,100946.56
2023-04-29T09:22:13.552Z,100943.97
2023-04-29T09:24:40.133Z,100944.00
2023-04-29T09:27:06.717Z,100947.00
2023-04-29T09:29:34.675Z,100947.31
2023-04-29T09:32:01.403Z,100951.13
2023-04-29T09:34:33.192Z,100949.31
2023-04-29T09:36:59.824Z,100951.22
2023-04-29T09:39:26.485Z,100957.44
2023-04-29T09:41:52.905Z,100953.22
2023-04-29T09:44:24.775Z,100953.78
2023-04-29T09:47:02.446Z,100953.28
2023-04-29T09:49:32.627Z,100951.16
2023-04-29T09:52:00.993Z,100954.94
2023-04-29T09:54:29.648Z,100950.69
2023-04-29T09:56:57.928Z,100960.09
2023-04-29T09:59:24.862Z,100954.50
2023-04-29T10:01:53.349Z,100943.78
2023-04-29T10:04:21.465Z,100953.69
2023-04-29T10:06:53.182Z,100941.31
2023-04-29T10:09:21.229Z,100953.06
2023-04-29T10:11:49.548Z,100944.94
2023-04-29T10:14:18.450Z,100948.34
2023-04-29T10:17:02.304Z,100946.59
2023-04-29T10:19:38.872Z,100951.34
2023-04-29T10:22:10.040Z,100940.47
2023-04-29T10:24:37.812Z,100938.72
2023-04-29T10:27:07.251Z,100939.31
2023-04-29T10:29:37.040Z,100934.84
2023-04-29T10:32:04.711Z,100941.97
2023-04-29T10:34:33.677Z,100933.53
2023-04-29T10:37:00.540Z,100935.31
2023-04-29T10:39:50.663Z,100934.16
2023-04-29T10:42:28.822Z,100944.06
2023-04-29T10:45:18.641Z,100936.22
2023-04-29T10:48:05.884Z,100939.66
2023-04-29T10:50:59.922Z,100933.44
2023-04-29T10:53:27.787Z,100937.06
2023-04-29T10:55:57.831Z,100936.97
2023-04-29T10:58:42.277Z,100937.88
2023-04-29T11:01:11.734Z,100945.25
2023-04-29T11:03:48.955Z,100943.19
2023-04-29T11:06:16.668Z,100937.69
2023-04-29T11:08:43.501Z,100943.75
2023-04-29T11:11:10.129Z,100939.03
2023-04-29T11:13:40.759Z,100933.72
2023-04-29T11:16:11.570Z,100934.56
2023-04-29T11:19:07.622Z,100937.25
2023-04-29T11:21:37.993Z,100933.75
2023-04-29T11:24:06.537Z,100925.31
2023-04-29T11:26:36.657Z,100926.06
2023-04-29T11:29:04.838Z,100923.50
2023-04-29T11:31:32.702Z,100925.78
2023-04-29T11:34:00.365Z,100921.13
2023-04-29T11:36:27.628Z,100929.72
2023-04-29T11:38:54.215Z,100920.44
2023-04-29T11:41:22.469Z,100917.41
2023-04-29T11:44:03.529Z,100919.28
2023-04-29T11:46:34.285Z,100925.00
2023-04-29T11:49:01.956Z,100922.94
2023-04-29T11:51:28.882Z,100921.84
2023-04-29T11:53:58.039Z,100916.75
2023-04-29T11:56:31.048Z,100918.13
2023-04-29T11:58:58.426Z,100910.16
2023-04-29T12:01:27.083Z,100918.41
2023-04-29T12:03:59.368Z,100920.69
2023-04-29T12:06:30.290Z,100930.53
2023-04-29T12:08:59.275Z,100925.25
2023-04-29T12:11:26.760Z,100925.31
2023-04-29T12:13:53.970Z,100925.66
2023-04-29T12:16:20.834Z,100934.34
2023-04-29T12:18:47.515Z,100929.09
2023-04-29T12:21:14.084Z,100918.91
2023-04-29T12:23:41.357Z,100930.03
2023-04-29T12:26:09.112Z,100929.31
2023-04-29T12:28:35.691Z,100926.75
2023-04-29T12:31:02.215Z,100925.75
2023-04-29T12:33:30.133Z,100932.50
2023-04-29T12:35:58.974Z,100922.50
2023-04-29T12:38:32.246Z,100921.16
2023-04-29T12:41:01.379Z,100920.25
2023-04-29T12:43:28.986Z,100925.69
2023-04-29T12:46:04.980Z,100931.13
2023-04-29T12:48:38.713Z,100930.84
2023-04-29T12:51:05.577Z,100927.31
2023-04-29T12:53:33.194Z,100920.13
2023-04-29T12:55:59.915Z,100925.38
2023-04-29T12:58:29.674Z,100917.38
2023-04-29T13:00:56.823Z,100915.75
2023-04-29T13:03:23.970Z,100914.31
2023-04-29T13:05:53.567Z,100917.56
2023-04-29T13:08:21.153Z,100917.97
2023-04-29T13:10:47.652Z,100915.06
2023-04-29T13:13:14.188Z,100910.72
2023-04-29T13:15:40.676Z,100918.28
2023-04-29T13:18:07.545Z,100915.75
2023-04-29T13:20:40.366Z,100914.94
2023-04-29T13:23:07.956Z,100918.63
2023-04-29T13:25:34.505Z,100914.28
2023-04-29T13:28:00.993Z,100918.78
2023-04-29T13:30:27.469Z,100923.81
2023-04-29T13:32:56.696Z,100921.09
2023-04-29T13:35:26.373Z,100928.84
2023-04-29T13:37:52.865Z,100923.75
2023-04-29T13:40:21.216Z,100919.44
2023-04-29T13:42:50.500Z,100922.28
2023-04-29T13:45:23.342Z,100925.81
2023-04-29T13:50:57.511Z,100913.50
2023-04-29T14:03:04.304Z,100912.88
2023-04-29T14:05:31.071Z,100912.28
2023-04-29T14:07:57.796Z,100911.81
2023-04-29T14:10:24.291Z,100913.25
2023-04-29T14:12:50.936Z,100912.44
2023-04-29T14:15:17.579Z,100912.75
2023-04-29T14:17:44.713Z,100909.22
2023-04-29T14:20:11.688Z,100906.34
2023-04-29T14:22:38.223Z,100907.91
2023-04-29T14:25:05.141Z,100904.25
2023-04-29T14:27:31.674Z,100905.88
2023-04-29T14:29:58.167Z,100906.22
2023-04-29T14:32:24.780Z,100906.09
2023-04-29T14:34:51.432Z,100900.47
2023-04-29T14:37:18.034Z,100895.38
2023-04-29T14:39:44.510Z,100901.59
2023-04-29T14:42:11.127Z,100894.53
2023-04-29T14:44:37.643Z,100887.19
2023-04-29T14:47:04.321Z,100884.66
2023-04-29T14:49:31.795Z,100884.97
2023-04-29T14:51:58.554Z,100886.25
2023-04-29T14:54:27.114Z,100886.56
2023-04-29T14:56:53.904Z,100896.97
2023-04-29T14:59:20.421Z,100896.31
2023-04-29T15:01:47.573Z,100897.13
2023-04-29T15:04:14.282Z,100901.25
2023-04-29T15:06:40.962Z,100892.63
2023-04-29T15:09:07.963Z,100894.72
2023-04-29T15:11:34.456Z,100891.84
2023-04-29T15:14:01.188Z,100886.25
2023-04-29T15:16:28.733Z,100894.22
2023-04-29T15:18:55.396Z,100894.88
2023-04-29T15:21:22.264Z,100887.19
2023-04-29T15:23:48.783Z,100889.25
2023-04-29T15:26:15.391Z,100888.94
2023-04-29T15:28:43.349Z,100896.75
2023-04-29T15:31:10.132Z,100892.34
2023-04-29T15:33:36.787Z,100895.84
2023-04-29T15:36:03.569Z,100894.25
2023-04-29T15:38:30.185Z,100902.66
2023-04-29T15:41:01.003Z,100888.59
2023-04-29T15:43:28.162Z,100890.59
2023-04-29T15:45:54.909Z,100895.00
2023-04-29T15:48:21.831Z,100902.38
2023-04-29T15:50:48.402Z,100908.31
2023-04-29T15:53:14.901Z,100919.63
2023-04-29T15:55:41.422Z,100920.59
2023-04-29T15:58:07.948Z,100921.63
2023-04-29T16:00:34.518Z,100920.88
2023-04-29T16:03:01.197Z,100918.50
2023-04-29T16:05:27.897Z,100923.28
2023-04-29T16:07:54.390Z,100917.75
2023-04-29T16:10:21.339Z,100918.13
2023-04-29T16:12:48.855Z,100919.44
2023-04-29T16:15:15.524Z,100926.69
2023-04-29T16:17:42.089Z,100932.84
2023-04-29T16:20:09.015Z,100939.84
2023-04-29T16:22:35.589Z,100939.03
2023-04-29T16:25:03.947Z,100945.13
2023-04-29T16:27:30.738Z,100947.44
2023-04-29T16:29:57.350Z,100950.19
2023-04-29T16:32:24.100Z,100952.22
2023-04-29T16:34:51.054Z,100954.22
2023-04-29T16:37:17.692Z,100953.56
2023-04-29T16:39:44.238Z,100951.53
2023-04-29T16:42:10.999Z,100951.13
2023-04-29T16:44:37.606Z,100957.38
2023-04-29T16:47:04.284Z,100951.84
2023-04-29T16:49:31.376Z,100954.66
2023-04-29T16:51:57.986Z,100955.56
2023-04-29T16:54:24.577Z,100951.88
2023-04-29T16:56:51.466Z,100950.06
2023-04-29T16:59:18.155Z,100953.06
2023-04-29T17:01:44.996Z,100959.84
2023-04-29T17:04:11.816Z,100968.22
2023-04-29T17:06:40.570Z,100958.84
2023-04-29T17:09:07.523Z,100960.75
2023-04-29T17:11:34.342Z,100960.53
2023-04-29T17:14:00.859Z,100957.34
2023-04-29T17:16:27.477Z,100962.50
2023-04-29T17:18:54.399Z,100961.72
2023-04-29T17:21:24.722Z,100969.00
2023-04-29T17:23:53.337Z,100963.91
2023-04-29T17:26:20.836Z,100963.41
2023-04-29T17:28:47.878Z,100977.66
2023-04-29T17:31:15.393Z,100972.06
2023-04-29T17:33:54.577Z,100980.41
2023-04-29T17:36:22.553Z,100975.59
2023-04-29T17:38:49.113Z,100977.47
2023-04-29T17:41:15.689Z,100983.91
2023-04-29T17:43:42.149Z,100982.03
2023-04-29T17:46:08.710Z,100980.19
2023-04-29T17:48:35.406Z,100980.97
2023-04-29T17:51:03.199Z,100984.22
2023-04-29T17:53:30.753Z,100984.47
2023-04-29T17:55:58.264Z,100977.53
2023-04-29T17:58:24.863Z,100976.72
2023-04-29T18:00:52.313Z,100974.03
2023-04-29T18:03:18.936Z,100976.44
2023-04-29T18:05:47.336Z,100968.94
2023-04-29T18:08:13.814Z,100958.22
2023-04-29T18:10:40.775Z,100960.38
2023-04-29T18:13:07.442Z,100962.56
2023-04-29T18:15:33.967Z,100959.88
2023-04-29T18:18:00.658Z,100955.84
2023-04-29T18:20:27.214Z,100967.66
2023-04-29T18:22:53.818Z,100966.06
2023-04-29T18:25:20.606Z,100971.41
2023-04-29T18:27:47.161Z,100976.78
2023-04-29T18:30:14.222Z,100976.50
2023-04-29T18:32:41.057Z,100988.00
2023-04-29T18:35:08.064Z,100983.97
2023-04-29T18:37:34.808Z,100991.47
2023-04-29T18:40:01.334Z,100993.59
2023-04-29T18:42:27.997Z,101001.63
2023-04-29T18:44:55.078Z,100994.41
2023-04-29T18:47:21.815Z,101002.69
2023-04-29T18:49:48.358Z,101002.94
2023-04-29T18:52:14.860Z,101005.06
2023-04-29T18:54:41.392Z,101002.91
2023-04-29T18:57:07.958Z,101002.63
2023-04-29T18:59:37.652Z,101006.38
2023-04-29T19:02:06.167Z,101010.91
2023-04-29T19:04:33.705Z,101013.03
2023-04-29T19:07:00.622Z,101014.06
2023-04-29T19:09:28.088Z,101005.22
2023-04-29T19:11:55.708Z,100996.63
2023-04-29T19:14:22.213Z,101005.44
2023-04-29T19:16:48.733Z,100997.94
2023-04-29T19:21:42.030Z,100998.16
2023-04-29T19:24:08.726Z,100994.66
2023-04-29T19:26:36.471Z,100995.41
2023-04-29T19:29:04.558Z,100995.41
2023-04-29T19:31:31.626Z,100999.91
2023-04-29T19:33:58.612Z,101001.25
2023-04-29T19:36:27.602Z,101006.00
2023-04-29T19:38:54.158Z,101007.59
2023-04-29T19:41:20.938Z,101006.22
2023-04-29T19:43:47.425Z,101012.09
2023-04-29T19:46:14.694Z,101011.25
2023-04-29T19:48:41.440Z,101015.25
2023-04-29T19:51:09.249Z,101017.63
2023-04-29T19:53:36.488Z,101017.34
2023-04-29T19:56:03.023Z,101025.09
2023-04-29T19:58:29.534Z,101029.06
2023-04-29T20:00:56.148Z,101025.31
2023-04-29T20:03:22.842Z,101031.66
2023-04-29T20:05:49.352Z,101031.34
2023-04-29T20:08:16.450Z,101036.97
2023-04-29T20:10:42.984Z,101034.56
2023-04-29T20:13:09.521Z,101036.88
2023-04-29T20:15:36.389Z,101047.03
2023-04-29T20:18:02.950Z,101044.00
2023-04-29T20:20:29.533Z,101050.13
2023-04-29T20:22:58.486Z,101048.25
2023-04-29T20:25:26.318Z,101051.69
2023-04-29T20:27:57.503Z,101060.75
2023-04-29T20:30:24.205Z,101051.06
2023-04-29T20:32:50.744Z,101060.94
2023-04-29T20:35:18.002Z,101052.84
2023-04-29T20:37:44.595Z,101052.59
2023-04-29T20:40:11.622Z,101048.81
2023-04-29T20:42:38.283Z,101055.72
2023-04-29T20:45:06.824Z,101054.34
2023-04-29T20:47:35.153Z,101052.19
2023-04-29T20:50:03.626Z,101053.25
2023-04-29T20:52:30.857Z,101055.34
2023-04-29T20:54:58.694Z,101051.03
2023-04-29T20:57:25.238Z,101054.19
2023-04-29T20:59:52.252Z,101058.16
2023-04-29T21:02:19.061Z,101050.41
2023-04-29T21:04:46.247Z,101064.31
2023-04-29T21:07:12.850Z,101049.78
2023-04-29T21:09:39.375Z,101055.66
2023-04-29T21:12:06.156Z,101051.13
2023-04-29T21:14:33.447Z,101052.16
2023-04-29T21:17:00.201Z,101055.56
2023-04-29T21:19:26.839Z,101054.72
2023-04-29T21:21:53.379Z,101057.59
2023-04-29T21:24:19.874Z,101056.00
2023-04-29T21:26:46.474Z,101053.59
2023-04-29T21:29:12.988Z,101046.88
2023-04-29T21:31:39.579Z,101059.69
2023-04-29T21:34:06.434Z,101057.50
2023-04-29T21:36:33.165Z,101056.38
2023-04-29T21:38:59.650Z,101052.59
2023-04-29T21:41:29.256Z,101057.63
2023-04-29T21:43:58.646Z,101051.97
2023-04-29T21:46:28.027Z,101054.06
2023-04-29T21:48:57.173Z,101053.50
2023-04-29T21:51:24.021Z,101051.91
2023-04-29T21:53:51.358Z,101053.50
2023-04-29T21:56:18.195Z,101045.19
2023-04-29T21:58:44.959Z,101047.00
2023-04-29T22:01:29.537Z,101039.00
2023-04-29T22:03:57.181Z,101040.53
2023-04-29T22:06:24.611Z,101044.00
2023-04-29T22:08:51.348Z,101045.88
2023-04-29T22:11:18.787Z,101052.25
2023-04-29T22:13:45.705Z,101054.84
2023-04-29T22:16:12.316Z,101060.66
2023-04-29T22:18:38.962Z,101053.72
2023-04-29T22:21:05.805Z,101055.00
2023-04-29T22:23:32.369Z,101062.22
2023-04-29T22:25:58.871Z,101061.84
2023-04-29T22:28:25.387Z,101069.31
2023-04-29T22:30:52.202Z,101060.19
2023-04-29T22:33:18.751Z,101061.25
2023-04-29T22:35:45.414Z,101061.47
2023-04-29T22:38:12.677Z,101067.59
2023-04-29T22:40:39.192Z,101064.63
2023-04-29T22:43:05.799Z,101062.22
2023-04-29T22:45:32.433Z,101057.34
2023-04-29T22:47:58.962Z,101061.34
2023-04-29T22:50:25.548Z,101060.75
2023-04-29T22:52:52.063Z,101058.91
2023-04-29T22:55:18.721Z,101051.63
2023-04-29T22:57:45.212Z,101055.09
2023-04-29T23:00:12.844Z,101057.22
2023-04-29T23:02:40.141Z,101047.59
2023-04-29T23:05:07.657Z,101054.22
2023-04-29T23:07:34.239Z,101046.72
2023-04-29T23:10:00.834Z,101049.84
2023-04-29T23:12:27.360Z,101046.66
2023-04-29T23:14:53.936Z,101045.59
2023-04-29T23:17:20.462Z,101044.19
2023-04-29T23:19:46.942Z,101047.38
2023-04-29T23:22:13.487Z,101038.78
2023-04-29T23:24:40.297Z,101042.75
2023-04-29T23:27:06.772Z,101048.31
2023-04-29T23:29:36.419Z,101048.00
2023-04-29T23:32:03.312Z,101041.00
2023-04-29T23:34:29.801Z,101041.22
2023-04-29T23:36:56.360Z,101032.41
2023-04-29T23:39:22.986Z,101035.09
2023-04-29T23:41:49.516Z,101033.69
2023-04-29T23:44:16.011Z,101041.94
2023-04-29T23:46:42.656Z,101040.22
2023-04-29T23:49:10.451Z,101034.59
2023-04-29T23:51:36.944Z,101041.69
2023-04-29T23:54:03.695Z,101031.84
2023-04-29T23:56:31.538Z,101032.88
2023-04-29T23:58:58.305Z,101038.34
